Rejestracja

Wszystkie dane podawane są w czasie UTC za wyjątkiem miejsc gdzie jest jednoznacznie podane, że jest inaczej. Dane podawane w serwisie mają charakter informacyjny!!!
Informacje w sprawie dostępu do serwisu pod numerem tel. +48 261-828-138
Informacja dla żołnierzy i pracowników wojska: Prosimy o niezwłoczną zmianę adresu e-mail w profilu użytkowika na pocztę w domenie @ron.mil.pl

Aktualna Pogoda
 
Pogoda w Polsce
20°C Szczecin 23°C Suwałki 18°C Warszawa 21°C Poznan
20°C Opole 19°C Kraków 28°C Rzeszów
Więcej miast w Polsce

Pogoda w Europie
21°C Berlin 21°C Paryz 17°C Bruksela 17°C Oslo
21°C Praga 26°C Zagrzeb
Więcej miast w Europie

Metary wojskowe test
METAR EPBC191400Z 27006KT 9999 BKN030 18/16 Q1016=
METAR EPCE 191430Z 25009KT 9999 FEW030 SCT045 BKN222 19/13 Q1015 RMK 194 068 7/1=
METAR EPDA 191430Z 27011KT 210V290 9999 BKN161 19/13 Q1015 RMK 188 069 6/6=
METAR EPDE 191430Z 30018KT 9999 BKN040 BKN070 23/14 Q1016 RMK 234 056 7/5=
METAR EPIR 191430Z 25016KT 9999 SCT030 BKN100 BKN200 21/14 Q1017 RMK 209 064 7/3=
METAR EPKS 191430Z 25008KT 9999 FEW033 BKN183 21/13 Q1017 RMK 211 059 5/2=
METAR EPLK 191400Z VRB02KT 9999 -RA SCT020 OVC050 17/16 Q1018 RMK 168 095 8/3=
METAR EPLY 191400Z 23004KT 9999 FEW030 SCT050 BKN080 18/16 Q1018 RMK 180 091 7/2=
METAR EPMB 191430Z 24006KT 9999 FEW030 BKN100 20/15 Q1015 RMK 197 072 7/2=
METAR EPMI 191400Z 30008KT 9999 SCT020 SCT200 19/10 Q1016 RMK 194 054 4/3=
METAR EPMM 191430Z 27010KT 9999 SCT008 BKN020CB BKN070 20/17 Q1017 RMK 200 083 7/3=
METAR EPOK 191430Z 28004KT 9999 FEW029 BKN213 20/15 Q1015 RMK 197 074 7/2=
METAR EPPR 191400Z 21002KT 9999 SCT130 OVC206 20/14 Q1015 RMK 200 069 8/3=
METAR EPPW 191430Z 25006KT 9999 SCT040 BKN200 21/13 Q1017 RMK 205 063 6/4=
METAR EPSN 191430Z 25012KT 9999 BKN040 19/11 Q1016 RMK 189 058 5/5=
METAR EPTM 191400Z AUTO 29006KT ///056 ///076 19/17 Q1018 RMK 185 088 ///=


 
Informacje ogólne
Pogoda
Warszawa
Temperatura: 18.2°C
Wiatr: 4.0 m/s
Ciśnienie: 1017.0 hPa
Zjawiska: Brak
Temp. max: 26.4 °C
Temp. min: 17.8 °C


Dane astronomiczne
Warszawa:
Dzien: 14:28 h
Noc: 09:32 h


Using HW VSP powered by HW group.

Prawa autorskie©2007 SSH SZ RP. Wszelkie prawa zastrzeżone.